Angel Fire, NM

7:26 AM MST on February 24, 2017 (GMT -0700)
Angel Fire

Weather History for KAXX - March, 2014

Change the Weather History Date:

Thursday, March 27, 2014

  Actual Average (KSKX) Record (KSKX)
Temperature  
Mean Temperature 34 °F -  
Max Temperature 39 °F 56 °F 68 °F (2012)
Min Temperature 29 °F 23 °F 8 °F (2009)
Degree Days  
Heating Degree Days 31    
Moisture  
Dew Point 22 °F    
Average Humidity 63    
Maximum Humidity 89    
Minimum Humidity 42    
Precipitation  
Precipitation 0.01 in - - ()
Sea Level Pressure  
Sea Level Pressure 29.83 in    
Wind  
Wind Speed 17 mph (WSW)    
Max Wind Speed 31 mph    
Max Gust Speed 43 mph    
Visibility 9 miles    
Events Snow    
Averages and records for this station are not official NWS values.
T = Trace of Precipitation, MM = Missing Value Source: NWS Daily Summary

Daily Weather History Graph

Daily Weather History Graph

Search for Another Location

Airport or City:

Trip Planner

Search our weather history database for the weather conditions in past years. The results will help you decide how hot, cold, wet, or windy it might be!

Date:

Astronomy

Mar. 27, 2014 Rise Set
Actual Time 6:54 AM MDT 7:19 PM MDT
Civil Twilight 6:28 AM MDT 7:44 PM MDT
Nautical Twilight 5:58 AM MDT 8:15 PM MDT
Astronomical Twilight 5:27 AM MDT 8:46 PM MDT
Moon 4:42 AM MDT (3/27) 4:14 PM MDT (3/27)
Length of Visible Light 13h 16m
Length of Day
12h 24m
Waning Crescent, 12% of the Moon is Illuminated
Mar 27
Waning Crescent
Mar 30
New
Apr 7
First Quarter
Apr 15
Full
Apr 22
Last Quarter

Hourly Weather History & Observations

Time (MDT) Temp. Windchill Dew Point Humidity Pressure Visibility Wind Dir Wind Speed Gust Speed Precip Events Conditions
12:15 AM 31.5 °F 19.1 °F 27.7 °F 86% 29.72 in 1.5 mi West 20.7 mph 40.3 mph 0.01 in Snow Light Snow
12:35 AM 31.1 °F 23.1 °F 28.2 °F 89% 29.73 in 2.0 mi West 9.2 mph 12.7 mph 0.01 in Snow Light Snow
12:55 AM 30.9 °F 19.4 °F 25.7 °F 81% 29.72 in 3.0 mi SW 17.3 mph 28.8 mph 0.01 in Snow Light Snow
1:15 AM 30.0 °F 17.2 °F 25.7 °F 84% 29.71 in 5.0 mi SW 20.7 mph 28.8 mph N/A Snow Light Snow
1:35 AM 30.0 °F 18.7 °F 25.7 °F 84% 29.71 in 10.0 mi WSW 16.1 mph 25.3 mph N/A   Overcast
1:55 AM 30.0 °F 19.1 °F 25.7 °F 84% 29.70 in 10.0 mi WSW 15.0 mph 27.6 mph N/A   Overcast
2:15 AM 30.2 °F 18.5 °F 25.5 °F 83% 29.70 in 10.0 mi WSW 17.3 mph 28.8 mph N/A   Overcast
2:35 AM 30.2 °F 16.5 °F 25.5 °F 83% 29.70 in 10.0 mi WSW 24.2 mph 33.4 mph N/A   Overcast
2:55 AM 30.6 °F 17.3 °F 24.8 °F 79% 29.70 in 10.0 mi WSW 23.0 mph 31.1 mph N/A   Overcast
3:15 AM 30.6 °F 17.3 °F 25.0 °F 80% 29.70 in 10.0 mi WSW 23.0 mph 29.9 mph N/A   Overcast
3:35 AM 30.7 °F 15.7 °F 24.6 °F 78% 29.70 in 4.0 mi WSW 31.1 mph 42.6 mph N/A   Haze
3:55 AM 30.6 °F 17.0 °F 24.8 °F 79% 29.70 in 4.0 mi WSW 24.2 mph 41.4 mph N/A   Haze
4:15 AM 30.6 °F 17.0 °F 24.6 °F 79% 29.70 in 10.0 mi West 24.2 mph 35.7 mph N/A   Overcast
4:35 AM 30.6 °F 16.4 °F 24.3 °F 77% 29.71 in 7.0 mi WSW 26.5 mph 33.4 mph N/A   Overcast
4:55 AM 30.2 °F 18.5 °F 24.4 °F 79% 29.72 in 10.0 mi WSW 17.3 mph 32.2 mph N/A   Overcast
5:15 AM 30.2 °F 16.2 °F 23.4 °F 76% 29.73 in 10.0 mi WSW 25.3 mph 33.4 mph N/A   Overcast
5:35 AM 29.8 °F 18.0 °F 22.8 °F 75% 29.74 in 7.0 mi WSW 17.3 mph 36.8 mph N/A   Overcast
5:55 AM 30.0 °F 18.3 °F 23.0 °F 75% 29.74 in 10.0 mi SW 17.3 mph 32.2 mph N/A   Overcast
6:15 AM 29.8 °F 20.3 °F 23.2 °F 76% 29.75 in 10.0 mi SW 11.5 mph 31.1 mph N/A   Overcast
6:35 AM 29.8 °F 16.6 °F 23.0 °F 76% 29.75 in 10.0 mi WSW 21.9 mph 31.1 mph N/A   Overcast
6:55 AM 29.3 °F 17.3 °F 23.2 °F 78% 29.76 in 10.0 mi WSW 17.3 mph 27.6 mph N/A   Overcast
7:15 AM 29.3 °F 15.3 °F 23.2 °F 78% 29.77 in 10.0 mi WSW 24.2 mph 34.5 mph N/A   Overcast
7:35 AM 29.3 °F 14.7 °F 23.4 °F 78% 29.78 in 10.0 mi WSW 26.5 mph 34.5 mph N/A   Overcast
7:55 AM 29.7 °F 15.5 °F 23.0 °F 76% 29.80 in 10.0 mi WSW 25.3 mph 33.4 mph N/A   Overcast
8:15 AM 29.7 °F 20.1 °F 22.8 °F 76% 29.82 in 10.0 mi WSW 11.5 mph 25.3 mph N/A   Overcast
8:35 AM 29.8 °F 18.9 °F 22.8 °F 75% 29.83 in 10.0 mi West 15.0 mph 26.5 mph N/A   Overcast
8:55 AM 30.2 °F 19.3 °F 23.0 °F 75% 29.83 in 7.0 mi West 15.0 mph 18.4 mph N/A Snow Light Snow
9:15 AM 30.6 °F 17.9 °F 23.2 °F 74% 29.83 in 5.0 mi WSW 20.7 mph 24.2 mph N/A Snow Light Snow
9:35 AM 30.9 °F 18.4 °F 23.4 °F 74% 29.83 in 2.5 mi WSW 20.7 mph 25.3 mph N/A Snow Light Snow
9:50 AM 31.8 °F 20.6 °F 23.0 °F 70% 29.84 in 5.0 mi WSW 17.3 mph 24.2 mph N/A   Haze
10:15 AM 32.5 °F 22.3 °F 22.8 °F 67% 29.84 in 7.0 mi SW 15.0 mph 21.9 mph N/A   Overcast
10:35 AM 33.8 °F 25.3 °F 22.5 °F 63% 29.85 in 10.0 mi WSW 11.5 mph 20.7 mph N/A   Overcast
10:55 AM 34.9 °F 24.2 °F 23.7 °F 64% 29.85 in 10.0 mi SW 18.4 mph 25.3 mph N/A   Overcast
11:15 AM 33.6 °F 23.3 °F 25.0 °F 71% 29.85 in 5.0 mi WSW 16.1 mph 24.2 mph N/A Snow Light Snow
11:35 AM 33.4 °F 23.9 °F 23.7 °F 68% 29.86 in 7.0 mi WSW 13.8 mph 21.9 mph N/A   Overcast
11:55 AM 33.4 °F 22.7 °F 23.9 °F 68% 29.86 in 4.0 mi WSW 17.3 mph 34.5 mph N/A Snow Light Snow
12:15 PM 34.0 °F 22.7 °F 23.2 °F 65% 29.86 in 7.0 mi WSW 19.6 mph 24.2 mph N/A Snow Light Snow
12:35 PM 36.3 °F 27.5 °F 23.0 °F 59% 29.86 in 10.0 mi WSW 13.8 mph 27.6 mph N/A   Mostly Cloudy
12:55 PM 36.1 °F 27.3 °F 21.4 °F 55% 29.86 in 10.0 mi WSW 13.8 mph 26.5 mph N/A   Mostly Cloudy
1:15 PM 36.0 °F 26.7 °F 19.9 °F 52% 29.87 in 10.0 mi West 15.0 mph 19.6 mph N/A   Overcast
1:35 PM 37.0 °F 28.9 °F 21.0 °F 52% 29.86 in 10.0 mi West 12.7 mph 20.7 mph N/A   Overcast
1:55 PM 35.8 °F 26.5 °F 20.5 °F 54% 29.86 in 7.0 mi WSW 15.0 mph 26.5 mph N/A Snow Light Snow
2:15 PM 37.6 °F 27.1 °F 22.6 °F 55% 29.86 in 10.0 mi SW 20.7 mph 34.5 mph N/A   Overcast
2:35 PM 36.1 °F 25.9 °F 23.4 °F 60% 29.87 in 5.0 mi WSW 18.4 mph 26.5 mph N/A Snow Light Snow
2:55 PM 36.0 °F 29.6 °F 22.1 °F 57% 29.86 in 7.0 mi West 8.1 mph 21.9 mph N/A Snow Light Snow
3:15 PM 37.8 °F 28.3 °F 21.6 °F 52% 29.85 in 10.0 mi WSW 17.3 mph 23.0 mph N/A   Overcast
3:35 PM 38.3 °F 29.0 °F 22.1 °F 52% 29.85 in 10.0 mi WSW 17.3 mph 28.8 mph N/A   Overcast
3:55 PM 38.3 °F 28.7 °F 22.3 °F 53% 29.86 in 10.0 mi West 18.4 mph 27.6 mph N/A   Overcast
4:15 PM 37.9 °F 29.2 °F 21.6 °F 52% 29.86 in 10.0 mi West 15.0 mph 19.6 mph N/A   Overcast
4:35 PM 38.3 °F 29.0 °F 20.3 °F 48% 29.87 in 10.0 mi WSW 17.3 mph 27.6 mph N/A   Overcast
4:55 PM 39.4 °F 31.1 °F 19.9 °F 46% 29.87 in 10.0 mi WSW 15.0 mph 34.5 mph N/A   Overcast
5:15 PM 39.2 °F 32.0 °F 19.9 °F 46% 29.87 in 10.0 mi SW 11.5 mph 16.1 mph N/A   Overcast
5:35 PM 39.2 °F 33.0 °F 19.6 °F 45% 29.88 in 10.0 mi West 9.2 mph 26.5 mph N/A   Overcast
5:55 PM 39.2 °F 33.0 °F 19.2 °F 45% 29.88 in 10.0 mi WSW 9.2 mph 17.3 mph N/A   Overcast
6:15 PM 39.2 °F 31.6 °F 18.1 °F 43% 29.89 in 10.0 mi WSW 12.7 mph 25.3 mph N/A   Overcast
6:55 PM 38.3 °F 31.9 °F 17.6 °F 43% 29.91 in 10.0 mi West 9.2 mph - N/A   Overcast
7:15 PM 38.3 °F 33.2 °F 16.9 °F 42% 29.91 in 10.0 mi WSW 6.9 mph - N/A   Overcast
7:35 PM 37.8 °F 32.5 °F 18.3 °F 46% 29.93 in 10.0 mi WSW 6.9 mph - N/A   Overcast
7:55 PM 37.8 °F 31.3 °F 17.2 °F 43% 29.93 in 10.0 mi WSW 9.2 mph - N/A   Overcast
8:15 PM 37.4 °F 28.9 °F 17.2 °F 44% 29.93 in 10.0 mi WSW 13.8 mph - N/A   Mostly Cloudy
8:35 PM 37.4 °F 28.9 °F 17.4 °F 44% 29.93 in 10.0 mi West 13.8 mph 21.9 mph N/A   Mostly Cloudy
8:55 PM 37.2 °F 28.3 °F 17.8 °F 45% 29.93 in 10.0 mi West 15.0 mph 21.9 mph N/A   Mostly Cloudy
9:15 PM 36.5 °F 27.4 °F 17.8 °F 47% 29.93 in 10.0 mi West 15.0 mph 19.6 mph N/A   Scattered Clouds
9:35 PM 36.5 °F 28.7 °F 17.8 °F 47% 29.93 in 10.0 mi West 11.5 mph 23.0 mph N/A   Clear
9:55 PM 36.0 °F 29.6 °F 17.6 °F 47% 29.93 in 10.0 mi West 8.1 mph 24.2 mph N/A   Clear
10:15 PM 35.6 °F 29.9 °F 17.2 °F 47% 29.92 in 10.0 mi WNW 6.9 mph - N/A   Clear
10:35 PM 35.8 °F 30.1 °F 16.9 °F 46% 29.93 in 10.0 mi NNW 6.9 mph 19.6 mph N/A   Clear
10:55 PM 36.0 °F 28.0 °F 16.5 °F 45% 29.93 in 10.0 mi WNW 11.5 mph 20.7 mph N/A   Clear
11:15 PM 35.6 °F 29.2 °F 16.2 °F 45% 29.92 in 10.0 mi WNW 8.1 mph 21.9 mph N/A   Clear
11:35 PM 35.6 °F 30.7 °F 16.3 °F 46% 29.93 in 10.0 mi West 5.8 mph - N/A   Clear
11:55 PM 36.1 °F 31.4 °F 15.6 °F 43% 29.93 in 10.0 mi South 5.8 mph - N/A   Clear